sensor_id;sensor_type;location;lat;lon;timestamp;P1;durP1;ratioP1;P2;durP2;ratioP2
7647;SDS011;3866;48.020;11.720;2023-12-20T00:01:16;2.70;;;1.93;;
7647;SDS011;3866;48.020;11.720;2023-12-20T00:03:43;2.43;;;1.83;;
7647;SDS011;3866;48.020;11.720;2023-12-20T00:06:10;1.97;;;1.60;;
7647;SDS011;3866;48.020;11.720;2023-12-20T00:08:37;1.70;;;1.60;;
7647;SDS011;3866;48.020;11.720;2023-12-20T00:11:04;3.97;;;2.17;;
7647;SDS011;3866;48.020;11.720;2023-12-20T00:13:31;2.37;;;1.93;;
7647;SDS011;3866;48.020;11.720;2023-12-20T00:15:59;2.40;;;1.80;;
7647;SDS011;3866;48.020;11.720;2023-12-20T00:18:26;3.13;;;1.80;;
7647;SDS011;3866;48.020;11.720;2023-12-20T00:20:53;1.57;;;1.47;;
7647;SDS011;3866;48.020;11.720;2023-12-20T00:23:20;2.93;;;1.53;;
7647;SDS011;3866;48.020;11.720;2023-12-20T00:25:48;2.30;;;1.60;;
7647;SDS011;3866;48.020;11.720;2023-12-20T00:28:15;2.37;;;1.70;;
7647;SDS011;3866;48.020;11.720;2023-12-20T00:30:42;2.13;;;1.93;;
7647;SDS011;3866;48.020;11.720;2023-12-20T00:33:10;2.80;;;2.03;;
7647;SDS011;3866;48.020;11.720;2023-12-20T00:35:37;2.17;;;1.50;;
7647;SDS011;3866;48.020;11.720;2023-12-20T00:38:04;2.47;;;2.10;;
7647;SDS011;3866;48.020;11.720;2023-12-20T00:40:33;2.70;;;2.00;;
7647;SDS011;3866;48.020;11.720;2023-12-20T00:43:00;2.03;;;1.87;;
7647;SDS011;3866;48.020;11.720;2023-12-20T00:45:27;2.10;;;1.90;;
7647;SDS011;3866;48.020;11.720;2023-12-20T00:47:54;1.97;;;1.87;;
7647;SDS011;3866;48.020;11.720;2023-12-20T00:50:22;5.13;;;2.10;;
7647;SDS011;3866;48.020;11.720;2023-12-20T00:52:49;2.07;;;1.93;;
7647;SDS011;3866;48.020;11.720;2023-12-20T00:55:16;3.53;;;2.37;;
7647;SDS011;3866;48.020;11.720;2023-12-20T00:57:43;2.93;;;1.90;;
7647;SDS011;3866;48.020;11.720;2023-12-20T01:00:10;2.73;;;2.10;;
7647;SDS011;3866;48.020;11.720;2023-12-20T01:02:38;2.20;;;2.10;;
7647;SDS011;3866;48.020;11.720;2023-12-20T01:05:05;2.30;;;2.10;;
7647;SDS011;3866;48.020;11.720;2023-12-20T01:07:35;3.27;;;2.00;;
7647;SDS011;3866;48.020;11.720;2023-12-20T01:10:02;2.43;;;1.93;;
7647;SDS011;3866;48.020;11.720;2023-12-20T01:12:30;14.27;;;8.37;;
7647;SDS011;3866;48.020;11.720;2023-12-20T01:14:57;3.90;;;1.80;;
7647;SDS011;3866;48.020;11.720;2023-12-20T01:17:24;3.10;;;2.10;;
7647;SDS011;3866;48.020;11.720;2023-12-20T01:19:51;2.03;;;1.60;;
7647;SDS011;3866;48.020;11.720;2023-12-20T01:22:17;3.60;;;2.53;;
7647;SDS011;3866;48.020;11.720;2023-12-20T01:24:46;2.30;;;2.10;;
7647;SDS011;3866;48.020;11.720;2023-12-20T01:27:13;2.70;;;2.07;;
7647;SDS011;3866;48.020;11.720;2023-12-20T01:29:40;2.37;;;2.17;;
7647;SDS011;3866;48.020;11.720;2023-12-20T01:32:06;3.73;;;1.77;;
7647;SDS011;3866;48.020;11.720;2023-12-20T01:34:33;2.30;;;1.90;;
7647;SDS011;3866;48.020;11.720;2023-12-20T01:37:01;2.30;;;1.90;;
7647;SDS011;3866;48.020;11.720;2023-12-20T01:39:30;2.57;;;1.80;;
7647;SDS011;3866;48.020;11.720;2023-12-20T01:41:59;2.10;;;1.90;;
7647;SDS011;3866;48.020;11.720;2023-12-20T01:44:26;2.17;;;2.00;;
7647;SDS011;3866;48.020;11.720;2023-12-20T01:46:52;3.23;;;2.30;;
7647;SDS011;3866;48.020;11.720;2023-12-20T01:49:20;1.77;;;1.67;;
7647;SDS011;3866;48.020;11.720;2023-12-20T01:51:48;2.27;;;1.97;;
7647;SDS011;3866;48.020;11.720;2023-12-20T01:54:15;2.60;;;2.07;;
7647;SDS011;3866;48.020;11.720;2023-12-20T01:56:42;2.70;;;2.20;;
7647;SDS011;3866;48.020;11.720;2023-12-20T01:59:10;2.40;;;2.20;;
7647;SDS011;3866;48.020;11.720;2023-12-20T02:01:38;3.00;;;2.30;;
7647;SDS011;3866;48.020;11.720;2023-12-20T02:04:05;2.13;;;1.93;;
7647;SDS011;3866;48.020;11.720;2023-12-20T02:06:32;2.90;;;2.60;;
7647;SDS011;3866;48.020;11.720;2023-12-20T02:09:00;3.00;;;2.37;;
7647;SDS011;3866;48.020;11.720;2023-12-20T02:11:27;2.83;;;2.23;;
7647;SDS011;3866;48.020;11.720;2023-12-20T02:13:54;2.43;;;2.13;;
7647;SDS011;3866;48.020;11.720;2023-12-20T02:16:23;3.27;;;2.50;;
7647;SDS011;3866;48.020;11.720;2023-12-20T02:18:51;2.10;;;1.90;;
7647;SDS011;3866;48.020;11.720;2023-12-20T02:21:18;2.20;;;1.90;;
7647;SDS011;3866;48.020;11.720;2023-12-20T02:23:51;2.03;;;1.83;;
7647;SDS011;3866;48.020;11.720;2023-12-20T02:26:17;3.23;;;2.37;;
7647;SDS011;3866;48.020;11.720;2023-12-20T02:28:44;2.33;;;2.13;;
7647;SDS011;3866;48.020;11.720;2023-12-20T02:31:11;2.40;;;2.20;;
7647;SDS011;3866;48.020;11.720;2023-12-20T02:33:38;2.27;;;2.07;;
7647;SDS011;3866;48.020;11.720;2023-12-20T02:36:07;3.03;;;2.33;;
7647;SDS011;3866;48.020;11.720;2023-12-20T02:38:35;3.17;;;2.30;;
7647;SDS011;3866;48.020;11.720;2023-12-20T02:41:02;2.63;;;2.10;;
7647;SDS011;3866;48.020;11.720;2023-12-20T02:43:29;2.93;;;2.63;;
7647;SDS011;3866;48.020;11.720;2023-12-20T02:45:56;3.70;;;2.00;;
7647;SDS011;3866;48.020;11.720;2023-12-20T02:48:23;2.20;;;2.00;;
7647;SDS011;3866;48.020;11.720;2023-12-20T02:50:50;2.10;;;1.90;;
7647;SDS011;3866;48.020;11.720;2023-12-20T02:53:17;2.57;;;2.10;;
7647;SDS011;3866;48.020;11.720;2023-12-20T02:55:45;2.20;;;1.93;;
7647;SDS011;3866;48.020;11.720;2023-12-20T02:58:12;2.37;;;2.17;;
7647;SDS011;3866;48.020;11.720;2023-12-20T03:00:39;2.37;;;2.17;;
7647;SDS011;3866;48.020;11.720;2023-12-20T03:03:06;2.73;;;1.80;;
7647;SDS011;3866;48.020;11.720;2023-12-20T03:05:33;2.30;;;2.10;;
7647;SDS011;3866;48.020;11.720;2023-12-20T03:08:00;3.73;;;1.97;;
7647;SDS011;3866;48.020;11.720;2023-12-20T03:10:27;2.77;;;2.13;;
7647;SDS011;3866;48.020;11.720;2023-12-20T03:12:55;2.07;;;1.87;;
7647;SDS011;3866;48.020;11.720;2023-12-20T03:15:22;1.77;;;1.67;;
7647;SDS011;3866;48.020;11.720;2023-12-20T03:17:49;2.23;;;2.10;;
7647;SDS011;3866;48.020;11.720;2023-12-20T03:20:16;2.47;;;2.07;;
7647;SDS011;3866;48.020;11.720;2023-12-20T03:22:43;2.93;;;2.43;;
7647;SDS011;3866;48.020;11.720;2023-12-20T03:25:10;2.43;;;2.20;;
7647;SDS011;3866;48.020;11.720;2023-12-20T03:27:37;1.87;;;1.77;;
7647;SDS011;3866;48.020;11.720;2023-12-20T03:30:06;2.23;;;2.00;;
7647;SDS011;3866;48.020;11.720;2023-12-20T03:32:34;2.87;;;1.93;;
7647;SDS011;3866;48.020;11.720;2023-12-20T03:35:01;2.50;;;2.17;;
7647;SDS011;3866;48.020;11.720;2023-12-20T03:37:28;3.07;;;1.87;;
7647;SDS011;3866;48.020;11.720;2023-12-20T03:39:54;2.30;;;1.80;;
7647;SDS011;3866;48.020;11.720;2023-12-20T03:42:21;3.03;;;1.70;;
7647;SDS011;3866;48.020;11.720;2023-12-20T03:44:48;2.63;;;2.20;;
7647;SDS011;3866;48.020;11.720;2023-12-20T03:47:17;1.50;;;1.40;;
7647;SDS011;3866;48.020;11.720;2023-12-20T03:49:43;1.93;;;1.73;;
7647;SDS011;3866;48.020;11.720;2023-12-20T03:52:10;2.83;;;2.10;;
7647;SDS011;3866;48.020;11.720;2023-12-20T03:54:38;3.73;;;1.80;;
7647;SDS011;3866;48.020;11.720;2023-12-20T03:57:05;1.47;;;1.37;;
7647;SDS011;3866;48.020;11.720;2023-12-20T03:59:34;2.23;;;1.70;;
7647;SDS011;3866;48.020;11.720;2023-12-20T04:02:02;2.07;;;1.60;;
7647;SDS011;3866;48.020;11.720;2023-12-20T04:04:31;3.67;;;1.93;;
7647;SDS011;3866;48.020;11.720;2023-12-20T04:06:58;1.50;;;1.40;;
7647;SDS011;3866;48.020;11.720;2023-12-20T04:09:24;1.37;;;1.27;;
7647;SDS011;3866;48.020;11.720;2023-12-20T04:11:51;2.00;;;1.80;;
7647;SDS011;3866;48.020;11.720;2023-12-20T04:14:18;2.27;;;1.30;;
7647;SDS011;3866;48.020;11.720;2023-12-20T04:16:45;1.57;;;1.10;;
7647;SDS011;3866;48.020;11.720;2023-12-20T04:19:12;1.43;;;1.17;;
7647;SDS011;3866;48.020;11.720;2023-12-20T04:21:40;1.03;;;1.03;;
7647;SDS011;3866;48.020;11.720;2023-12-20T04:24:07;1.13;;;1.03;;
7647;SDS011;3866;48.020;11.720;2023-12-20T04:26:34;2.00;;;0.90;;
7647;SDS011;3866;48.020;11.720;2023-12-20T04:29:01;1.80;;;1.10;;
7647;SDS011;3866;48.020;11.720;2023-12-20T04:31:28;1.53;;;1.00;;
7647;SDS011;3866;48.020;11.720;2023-12-20T04:33:55;1.30;;;1.20;;
7647;SDS011;3866;48.020;11.720;2023-12-20T04:36:22;1.57;;;1.27;;
7647;SDS011;3866;48.020;11.720;2023-12-20T04:38:51;1.40;;;1.30;;
7647;SDS011;3866;48.020;11.720;2023-12-20T04:41:19;1.40;;;1.30;;
7647;SDS011;3866;48.020;11.720;2023-12-20T04:43:45;0.87;;;0.87;;
7647;SDS011;3866;48.020;11.720;2023-12-20T04:46:12;1.47;;;1.03;;
7647;SDS011;3866;48.020;11.720;2023-12-20T04:48:39;1.23;;;0.90;;
7647;SDS011;3866;48.020;11.720;2023-12-20T04:51:06;0.70;;;0.70;;
7647;SDS011;3866;48.020;11.720;2023-12-20T04:53:33;1.10;;;1.00;;
7647;SDS011;3866;48.020;11.720;2023-12-20T04:56:01;0.80;;;0.80;;
7647;SDS011;3866;48.020;11.720;2023-12-20T04:58:28;1.40;;;0.77;;
7647;SDS011;3866;48.020;11.720;2023-12-20T05:00:55;1.20;;;1.00;;
7647;SDS011;3866;48.020;11.720;2023-12-20T05:03:22;1.57;;;0.70;;
7647;SDS011;3866;48.020;11.720;2023-12-20T05:05:49;0.93;;;0.63;;
7647;SDS011;3866;48.020;11.720;2023-12-20T05:08:16;1.27;;;0.80;;
7647;SDS011;3866;48.020;11.720;2023-12-20T05:10:43;1.03;;;1.00;;
7647;SDS011;3866;48.020;11.720;2023-12-20T05:13:11;0.90;;;0.70;;
7647;SDS011;3866;48.020;11.720;2023-12-20T05:15:38;0.63;;;0.63;;
7647;SDS011;3866;48.020;11.720;2023-12-20T05:18:05;1.70;;;0.63;;
7647;SDS011;3866;48.020;11.720;2023-12-20T05:20:32;0.80;;;0.80;;
7647;SDS011;3866;48.020;11.720;2023-12-20T05:22:59;0.60;;;0.60;;
7647;SDS011;3866;48.020;11.720;2023-12-20T05:25:26;0.83;;;0.80;;
7647;SDS011;3866;48.020;11.720;2023-12-20T05:27:53;0.77;;;0.77;;
7647;SDS011;3866;48.020;11.720;2023-12-20T05:30:22;0.93;;;0.93;;
7647;SDS011;3866;48.020;11.720;2023-12-20T05:32:49;0.90;;;0.90;;
7647;SDS011;3866;48.020;11.720;2023-12-20T05:35:16;2.43;;;0.70;;
7647;SDS011;3866;48.020;11.720;2023-12-20T05:37:44;1.70;;;1.00;;
7647;SDS011;3866;48.020;11.720;2023-12-20T05:40:11;0.50;;;0.50;;
7647;SDS011;3866;48.020;11.720;2023-12-20T05:42:38;1.40;;;1.17;;
7647;SDS011;3866;48.020;11.720;2023-12-20T05:45:05;1.10;;;0.97;;
7647;SDS011;3866;48.020;11.720;2023-12-20T05:47:34;1.87;;;1.10;;
7647;SDS011;3866;48.020;11.720;2023-12-20T05:50:03;1.43;;;0.63;;
7647;SDS011;3866;48.020;11.720;2023-12-20T05:52:31;0.60;;;0.60;;
7647;SDS011;3866;48.020;11.720;2023-12-20T05:54:58;0.77;;;0.77;;
7647;SDS011;3866;48.020;11.720;2023-12-20T05:57:26;3.70;;;0.80;;
7647;SDS011;3866;48.020;11.720;2023-12-20T05:59:53;2.17;;;0.80;;
7647;SDS011;3866;48.020;11.720;2023-12-20T06:02:20;1.17;;;0.50;;
7647;SDS011;3866;48.020;11.720;2023-12-20T06:04:48;0.60;;;0.50;;
7647;SDS011;3866;48.020;11.720;2023-12-20T06:07:15;0.50;;;0.50;;
7647;SDS011;3866;48.020;11.720;2023-12-20T06:09:42;0.50;;;0.50;;
7647;SDS011;3866;48.020;11.720;2023-12-20T06:12:10;1.23;;;0.80;;
7647;SDS011;3866;48.020;11.720;2023-12-20T06:14:36;0.70;;;0.70;;
7647;SDS011;3866;48.020;11.720;2023-12-20T06:17:03;1.13;;;0.70;;
7647;SDS011;3866;48.020;11.720;2023-12-20T06:19:30;0.50;;;0.50;;
7647;SDS011;3866;48.020;11.720;2023-12-20T06:21:59;0.90;;;0.50;;
7647;SDS011;3866;48.020;11.720;2023-12-20T06:24:25;1.83;;;0.90;;
7647;SDS011;3866;48.020;11.720;2023-12-20T06:26:53;1.33;;;0.70;;
7647;SDS011;3866;48.020;11.720;2023-12-20T06:29:20;2.30;;;0.83;;
7647;SDS011;3866;48.020;11.720;2023-12-20T06:31:47;1.23;;;0.80;;
7647;SDS011;3866;48.020;11.720;2023-12-20T06:34:14;0.60;;;0.60;;
7647;SDS011;3866;48.020;11.720;2023-12-20T06:36:41;2.47;;;0.40;;
7647;SDS011;3866;48.020;11.720;2023-12-20T06:39:09;0.50;;;0.50;;
7647;SDS011;3866;48.020;11.720;2023-12-20T06:41:42;0.87;;;0.60;;
7647;SDS011;3866;48.020;11.720;2023-12-20T06:44:09;0.60;;;0.60;;
7647;SDS011;3866;48.020;11.720;2023-12-20T06:46:36;0.90;;;0.70;;
7647;SDS011;3866;48.020;11.720;2023-12-20T06:49:03;0.80;;;0.70;;
7647;SDS011;3866;48.020;11.720;2023-12-20T06:51:29;0.60;;;0.60;;
7647;SDS011;3866;48.020;11.720;2023-12-20T06:53:56;0.60;;;0.60;;
7647;SDS011;3866;48.020;11.720;2023-12-20T06:56:26;0.33;;;0.33;;
7647;SDS011;3866;48.020;11.720;2023-12-20T06:58:53;0.70;;;0.67;;
7647;SDS011;3866;48.020;11.720;2023-12-20T07:01:20;0.63;;;0.50;;
7647;SDS011;3866;48.020;11.720;2023-12-20T07:03:47;0.73;;;0.40;;
7647;SDS011;3866;48.020;11.720;2023-12-20T07:06:14;0.70;;;0.60;;
7647;SDS011;3866;48.020;11.720;2023-12-20T07:08:42;0.90;;;0.30;;
7647;SDS011;3866;48.020;11.720;2023-12-20T07:11:09;0.40;;;0.40;;
7647;SDS011;3866;48.020;11.720;2023-12-20T07:13:37;1.20;;;0.27;;
7647;SDS011;3866;48.020;11.720;2023-12-20T07:16:04;0.60;;;0.33;;
7647;SDS011;3866;48.020;11.720;2023-12-20T07:18:31;0.40;;;0.40;;
7647;SDS011;3866;48.020;11.720;2023-12-20T07:20:58;0.47;;;0.33;;
7647;SDS011;3866;48.020;11.720;2023-12-20T07:23:25;0.53;;;0.40;;
7647;SDS011;3866;48.020;11.720;2023-12-20T07:25:52;0.40;;;0.40;;
7647;SDS011;3866;48.020;11.720;2023-12-20T07:28:19;1.63;;;0.50;;
7647;SDS011;3866;48.020;11.720;2023-12-20T07:30:47;4.03;;;1.97;;
7647;SDS011;3866;48.020;11.720;2023-12-20T07:33:14;0.40;;;0.40;;
7647;SDS011;3866;48.020;11.720;2023-12-20T07:35:41;0.90;;;0.50;;
7647;SDS011;3866;48.020;11.720;2023-12-20T07:38:10;0.53;;;0.47;;
7647;SDS011;3866;48.020;11.720;2023-12-20T07:40:37;0.60;;;0.60;;
7647;SDS011;3866;48.020;11.720;2023-12-20T07:43:04;0.70;;;0.47;;
7647;SDS011;3866;48.020;11.720;2023-12-20T07:45:31;0.43;;;0.43;;
7647;SDS011;3866;48.020;11.720;2023-12-20T07:48:00;0.93;;;0.50;;
7647;SDS011;3866;48.020;11.720;2023-12-20T07:50:27;0.50;;;0.50;;
7647;SDS011;3866;48.020;11.720;2023-12-20T07:52:53;0.50;;;0.50;;
7647;SDS011;3866;48.020;11.720;2023-12-20T07:55:20;0.43;;;0.37;;
7647;SDS011;3866;48.020;11.720;2023-12-20T07:57:47;0.30;;;0.30;;
7647;SDS011;3866;48.020;11.720;2023-12-20T08:00:15;0.50;;;0.50;;
7647;SDS011;3866;48.020;11.720;2023-12-20T08:02:42;1.23;;;0.70;;
7647;SDS011;3866;48.020;11.720;2023-12-20T08:05:10;1.77;;;1.40;;
7647;SDS011;3866;48.020;11.720;2023-12-20T08:07:38;2.87;;;2.60;;
7647;SDS011;3866;48.020;11.720;2023-12-20T08:10:06;0.67;;;0.67;;
7647;SDS011;3866;48.020;11.720;2023-12-20T08:12:33;0.50;;;0.50;;
7647;SDS011;3866;48.020;11.720;2023-12-20T08:15:01;0.90;;;0.70;;
7647;SDS011;3866;48.020;11.720;2023-12-20T08:17:29;2.17;;;0.50;;
7647;SDS011;3866;48.020;11.720;2023-12-20T08:19:56;0.40;;;0.40;;
7647;SDS011;3866;48.020;11.720;2023-12-20T08:22:24;0.77;;;0.40;;
7647;SDS011;3866;48.020;11.720;2023-12-20T08:24:51;0.67;;;0.60;;
7647;SDS011;3866;48.020;11.720;2023-12-20T08:27:18;0.50;;;0.50;;
7647;SDS011;3866;48.020;11.720;2023-12-20T08:29:45;3.83;;;0.50;;
7647;SDS011;3866;48.020;11.720;2023-12-20T08:32:12;0.43;;;0.43;;
7647;SDS011;3866;48.020;11.720;2023-12-20T08:34:39;0.80;;;0.50;;
7647;SDS011;3866;48.020;11.720;2023-12-20T08:37:06;0.60;;;0.40;;
7647;SDS011;3866;48.020;11.720;2023-12-20T08:39:35;1.60;;;0.40;;
7647;SDS011;3866;48.020;11.720;2023-12-20T08:42:02;0.87;;;0.43;;
7647;SDS011;3866;48.020;11.720;2023-12-20T08:44:29;0.60;;;0.60;;
7647;SDS011;3866;48.020;11.720;2023-12-20T08:46:56;1.50;;;0.80;;
7647;SDS011;3866;48.020;11.720;2023-12-20T08:49:23;0.90;;;0.87;;
7647;SDS011;3866;48.020;11.720;2023-12-20T08:51:50;1.13;;;0.60;;
7647;SDS011;3866;48.020;11.720;2023-12-20T08:54:17;1.73;;;0.77;;
7647;SDS011;3866;48.020;11.720;2023-12-20T08:56:51;0.50;;;0.50;;
7647;SDS011;3866;48.020;11.720;2023-12-20T08:59:18;0.83;;;0.70;;
7647;SDS011;3866;48.020;11.720;2023-12-20T09:01:45;0.93;;;0.80;;
7647;SDS011;3866;48.020;11.720;2023-12-20T09:04:13;0.77;;;0.57;;
7647;SDS011;3866;48.020;11.720;2023-12-20T09:06:40;1.33;;;0.60;;
7647;SDS011;3866;48.020;11.720;2023-12-20T09:09:07;0.50;;;0.50;;
7647;SDS011;3866;48.020;11.720;2023-12-20T09:11:38;0.50;;;0.50;;
7647;SDS011;3866;48.020;11.720;2023-12-20T09:14:07;0.50;;;0.50;;
7647;SDS011;3866;48.020;11.720;2023-12-20T09:16:34;0.73;;;0.60;;
7647;SDS011;3866;48.020;11.720;2023-12-20T09:19:01;0.70;;;0.40;;
7647;SDS011;3866;48.020;11.720;2023-12-20T09:21:29;1.30;;;0.47;;
7647;SDS011;3866;48.020;11.720;2023-12-20T09:23:59;1.13;;;0.50;;
7647;SDS011;3866;48.020;11.720;2023-12-20T09:26:26;1.00;;;0.60;;
7647;SDS011;3866;48.020;11.720;2023-12-20T09:28:52;0.53;;;0.50;;
7647;SDS011;3866;48.020;11.720;2023-12-20T09:31:21;0.90;;;0.83;;
7647;SDS011;3866;48.020;11.720;2023-12-20T09:33:47;1.50;;;1.30;;
7647;SDS011;3866;48.020;11.720;2023-12-20T09:36:14;1.60;;;1.50;;
7647;SDS011;3866;48.020;11.720;2023-12-20T09:38:41;2.10;;;0.80;;
7647;SDS011;3866;48.020;11.720;2023-12-20T09:41:08;0.80;;;0.70;;
7647;SDS011;3866;48.020;11.720;2023-12-20T09:43:35;0.70;;;0.70;;
7647;SDS011;3866;48.020;11.720;2023-12-20T09:46:05;0.40;;;0.40;;
7647;SDS011;3866;48.020;11.720;2023-12-20T09:48:34;0.50;;;0.50;;
7647;SDS011;3866;48.020;11.720;2023-12-20T09:51:03;0.87;;;0.40;;
7647;SDS011;3866;48.020;11.720;2023-12-20T09:53:30;0.60;;;0.50;;
7647;SDS011;3866;48.020;11.720;2023-12-20T09:56:00;0.60;;;0.60;;
7647;SDS011;3866;48.020;11.720;2023-12-20T09:58:28;0.50;;;0.50;;
7647;SDS011;3866;48.020;11.720;2023-12-20T10:00:55;0.60;;;0.60;;
7647;SDS011;3866;48.020;11.720;2023-12-20T10:03:23;0.60;;;0.60;;
7647;SDS011;3866;48.020;11.720;2023-12-20T10:05:54;2.10;;;0.50;;
7647;SDS011;3866;48.020;11.720;2023-12-20T10:08:22;0.60;;;0.60;;
7647;SDS011;3866;48.020;11.720;2023-12-20T10:10:50;0.73;;;0.60;;
7647;SDS011;3866;48.020;11.720;2023-12-20T10:13:17;0.50;;;0.50;;
7647;SDS011;3866;48.020;11.720;2023-12-20T10:15:44;1.83;;;1.37;;
7647;SDS011;3866;48.020;11.720;2023-12-20T10:18:11;1.60;;;1.33;;
7647;SDS011;3866;48.020;11.720;2023-12-20T10:20:39;0.97;;;0.90;;
7647;SDS011;3866;48.020;11.720;2023-12-20T10:23:08;0.60;;;0.57;;
7647;SDS011;3866;48.020;11.720;2023-12-20T10:25:35;1.13;;;0.60;;
7647;SDS011;3866;48.020;11.720;2023-12-20T10:28:09;1.03;;;0.83;;
7647;SDS011;3866;48.020;11.720;2023-12-20T10:30:37;1.20;;;1.10;;
7647;SDS011;3866;48.020;11.720;2023-12-20T10:33:05;1.13;;;0.80;;
7647;SDS011;3866;48.020;11.720;2023-12-20T10:35:32;0.70;;;0.50;;
7647;SDS011;3866;48.020;11.720;2023-12-20T10:38:00;0.47;;;0.47;;
7647;SDS011;3866;48.020;11.720;2023-12-20T10:40:31;1.50;;;1.40;;
7647;SDS011;3866;48.020;11.720;2023-12-20T10:43:02;1.20;;;1.10;;
7647;SDS011;3866;48.020;11.720;2023-12-20T10:45:30;1.23;;;1.13;;
7647;SDS011;3866;48.020;11.720;2023-12-20T10:47:57;2.00;;;1.03;;
7647;SDS011;3866;48.020;11.720;2023-12-20T10:50:26;0.87;;;0.60;;
7647;SDS011;3866;48.020;11.720;2023-12-20T10:52:54;0.27;;;0.27;;
7647;SDS011;3866;48.020;11.720;2023-12-20T10:55:21;1.40;;;0.40;;
7647;SDS011;3866;48.020;11.720;2023-12-20T10:57:50;2.10;;;0.70;;
7647;SDS011;3866;48.020;11.720;2023-12-20T11:00:18;0.40;;;0.40;;
7647;SDS011;3866;48.020;11.720;2023-12-20T11:02:48;0.50;;;0.50;;
7647;SDS011;3866;48.020;11.720;2023-12-20T11:05:19;1.13;;;1.03;;
7647;SDS011;3866;48.020;11.720;2023-12-20T11:07:53;1.50;;;0.77;;
7647;SDS011;3866;48.020;11.720;2023-12-20T11:10:25;1.60;;;1.40;;
7647;SDS011;3866;48.020;11.720;2023-12-20T11:12:58;0.80;;;0.80;;
7647;SDS011;3866;48.020;11.720;2023-12-20T11:15:34;0.60;;;0.60;;
7647;SDS011;3866;48.020;11.720;2023-12-20T11:18:02;0.77;;;0.77;;
7647;SDS011;3866;48.020;11.720;2023-12-20T11:20:35;0.40;;;0.40;;
7647;SDS011;3866;48.020;11.720;2023-12-20T11:23:03;0.67;;;0.67;;
7647;SDS011;3866;48.020;11.720;2023-12-20T11:25:34;0.97;;;0.97;;
7647;SDS011;3866;48.020;11.720;2023-12-20T11:28:14;0.50;;;0.50;;
7647;SDS011;3866;48.020;11.720;2023-12-20T11:30:46;1.27;;;1.20;;
7647;SDS011;3866;48.020;11.720;2023-12-20T11:33:14;0.60;;;0.50;;
7647;SDS011;3866;48.020;11.720;2023-12-20T11:35:41;2.50;;;0.93;;
7647;SDS011;3866;48.020;11.720;2023-12-20T11:38:08;1.50;;;0.70;;
7647;SDS011;3866;48.020;11.720;2023-12-20T11:40:36;0.83;;;0.83;;
7647;SDS011;3866;48.020;11.720;2023-12-20T11:43:03;1.63;;;1.00;;
7647;SDS011;3866;48.020;11.720;2023-12-20T11:45:32;0.60;;;0.60;;
7647;SDS011;3866;48.020;11.720;2023-12-20T11:48:00;0.77;;;0.63;;
7647;SDS011;3866;48.020;11.720;2023-12-20T11:50:28;1.70;;;1.60;;
7647;SDS011;3866;48.020;11.720;2023-12-20T11:52:56;0.80;;;0.80;;
7647;SDS011;3866;48.020;11.720;2023-12-20T11:55:23;1.67;;;1.57;;
7647;SDS011;3866;48.020;11.720;2023-12-20T11:57:50;0.73;;;0.73;;
7647;SDS011;3866;48.020;11.720;2023-12-20T12:00:19;0.97;;;0.87;;
7647;SDS011;3866;48.020;11.720;2023-12-20T12:02:57;0.63;;;0.63;;
7647;SDS011;3866;48.020;11.720;2023-12-20T12:05:24;1.70;;;1.60;;
7647;SDS011;3866;48.020;11.720;2023-12-20T12:07:52;1.43;;;1.07;;
7647;SDS011;3866;48.020;11.720;2023-12-20T12:10:19;0.87;;;0.83;;
7647;SDS011;3866;48.020;11.720;2023-12-20T12:12:48;1.43;;;1.33;;
7647;SDS011;3866;48.020;11.720;2023-12-20T12:15:15;1.40;;;1.23;;
7647;SDS011;3866;48.020;11.720;2023-12-20T12:17:42;1.83;;;0.50;;
7647;SDS011;3866;48.020;11.720;2023-12-20T12:20:11;0.53;;;0.40;;
7647;SDS011;3866;48.020;11.720;2023-12-20T12:22:38;1.20;;;0.70;;
7647;SDS011;3866;48.020;11.720;2023-12-20T12:25:11;1.00;;;0.60;;
7647;SDS011;3866;48.020;11.720;2023-12-20T12:27:40;0.40;;;0.40;;
7647;SDS011;3866;48.020;11.720;2023-12-20T12:30:07;0.93;;;0.70;;
7647;SDS011;3866;48.020;11.720;2023-12-20T12:32:38;0.70;;;0.70;;
7647;SDS011;3866;48.020;11.720;2023-12-20T12:35:05;0.77;;;0.47;;
7647;SDS011;3866;48.020;11.720;2023-12-20T12:37:36;1.10;;;0.80;;
7647;SDS011;3866;48.020;11.720;2023-12-20T12:40:06;0.47;;;0.47;;
7647;SDS011;3866;48.020;11.720;2023-12-20T12:42:36;0.73;;;0.73;;
7647;SDS011;3866;48.020;11.720;2023-12-20T12:45:03;1.20;;;1.20;;
7647;SDS011;3866;48.020;11.720;2023-12-20T12:47:31;0.67;;;0.60;;
7647;SDS011;3866;48.020;11.720;2023-12-20T12:49:58;0.80;;;0.80;;
7647;SDS011;3866;48.020;11.720;2023-12-20T12:52:25;0.80;;;0.80;;
7647;SDS011;3866;48.020;11.720;2023-12-20T12:54:54;1.40;;;0.70;;
7647;SDS011;3866;48.020;11.720;2023-12-20T12:57:20;0.70;;;0.70;;
7647;SDS011;3866;48.020;11.720;2023-12-20T12:59:48;1.00;;;0.80;;
7647;SDS011;3866;48.020;11.720;2023-12-20T13:02:15;0.93;;;0.70;;
7647;SDS011;3866;48.020;11.720;2023-12-20T13:04:43;0.80;;;0.80;;
7647;SDS011;3866;48.020;11.720;2023-12-20T13:07:10;1.10;;;0.77;;
7647;SDS011;3866;48.020;11.720;2023-12-20T13:09:37;1.00;;;0.80;;
7647;SDS011;3866;48.020;11.720;2023-12-20T13:12:07;0.63;;;0.63;;
7647;SDS011;3866;48.020;11.720;2023-12-20T13:14:34;1.00;;;0.90;;
7647;SDS011;3866;48.020;11.720;2023-12-20T13:17:02;0.70;;;0.70;;
7647;SDS011;3866;48.020;11.720;2023-12-20T13:19:29;1.10;;;1.00;;
7647;SDS011;3866;48.020;11.720;2023-12-20T13:21:56;1.07;;;0.90;;
7647;SDS011;3866;48.020;11.720;2023-12-20T13:24:24;2.40;;;0.90;;
7647;SDS011;3866;48.020;11.720;2023-12-20T13:26:51;0.80;;;0.80;;
7647;SDS011;3866;48.020;11.720;2023-12-20T13:29:19;1.00;;;1.00;;
7647;SDS011;3866;48.020;11.720;2023-12-20T13:31:46;1.60;;;0.80;;
7647;SDS011;3866;48.020;11.720;2023-12-20T13:34:13;1.33;;;0.87;;
7647;SDS011;3866;48.020;11.720;2023-12-20T13:36:42;1.03;;;1.00;;
7647;SDS011;3866;48.020;11.720;2023-12-20T13:39:10;2.10;;;1.10;;
7647;SDS011;3866;48.020;11.720;2023-12-20T13:41:38;1.33;;;0.90;;
7647;SDS011;3866;48.020;11.720;2023-12-20T13:44:05;0.80;;;0.80;;
7647;SDS011;3866;48.020;11.720;2023-12-20T13:46:33;1.07;;;0.83;;
7647;SDS011;3866;48.020;11.720;2023-12-20T13:49:00;1.70;;;1.27;;
7647;SDS011;3866;48.020;11.720;2023-12-20T13:51:28;1.03;;;0.70;;
7647;SDS011;3866;48.020;11.720;2023-12-20T13:53:55;1.63;;;1.23;;
7647;SDS011;3866;48.020;11.720;2023-12-20T13:56:22;2.53;;;1.50;;
7647;SDS011;3866;48.020;11.720;2023-12-20T13:58:49;1.53;;;1.40;;
7647;SDS011;3866;48.020;11.720;2023-12-20T14:01:16;3.43;;;2.13;;
7647;SDS011;3866;48.020;11.720;2023-12-20T14:03:45;1.80;;;1.40;;
7647;SDS011;3866;48.020;11.720;2023-12-20T14:06:12;2.10;;;1.90;;
7647;SDS011;3866;48.020;11.720;2023-12-20T14:08:40;2.13;;;1.60;;
7647;SDS011;3866;48.020;11.720;2023-12-20T14:11:08;3.97;;;2.20;;
7647;SDS011;3866;48.020;11.720;2023-12-20T14:13:35;3.03;;;2.27;;
7647;SDS011;3866;48.020;11.720;2023-12-20T14:16:02;2.97;;;2.37;;
7647;SDS011;3866;48.020;11.720;2023-12-20T14:18:30;3.20;;;2.20;;
7647;SDS011;3866;48.020;11.720;2023-12-20T14:20:58;2.60;;;1.80;;
7647;SDS011;3866;48.020;11.720;2023-12-20T14:23:25;2.70;;;2.07;;
7647;SDS011;3866;48.020;11.720;2023-12-20T14:25:52;2.97;;;2.00;;
7647;SDS011;3866;48.020;11.720;2023-12-20T14:28:20;4.27;;;2.20;;
7647;SDS011;3866;48.020;11.720;2023-12-20T14:30:47;3.00;;;2.40;;
7647;SDS011;3866;48.020;11.720;2023-12-20T14:33:15;3.43;;;2.73;;
7647;SDS011;3866;48.020;11.720;2023-12-20T14:35:42;4.57;;;2.97;;
7647;SDS011;3866;48.020;11.720;2023-12-20T14:38:10;3.60;;;2.83;;
7647;SDS011;3866;48.020;11.720;2023-12-20T14:40:40;3.33;;;2.80;;
7647;SDS011;3866;48.020;11.720;2023-12-20T14:43:06;3.83;;;2.77;;
7647;SDS011;3866;48.020;11.720;2023-12-20T14:45:34;4.43;;;2.73;;
7647;SDS011;3866;48.020;11.720;2023-12-20T14:48:00;4.53;;;3.17;;
7647;SDS011;3866;48.020;11.720;2023-12-20T14:50:28;4.70;;;3.13;;
7647;SDS011;3866;48.020;11.720;2023-12-20T14:52:55;4.77;;;2.90;;
7647;SDS011;3866;48.020;11.720;2023-12-20T14:55:25;4.90;;;2.67;;
7647;SDS011;3866;48.020;11.720;2023-12-20T14:57:54;6.87;;;2.90;;
7647;SDS011;3866;48.020;11.720;2023-12-20T15:00:21;6.87;;;3.27;;
7647;SDS011;3866;48.020;11.720;2023-12-20T15:02:48;4.67;;;2.70;;